Terminal Aerodrome Forecast
Issued by NWS

Home | Current Version | Previous Version | Text Only | Print | Product List | Glossary Off
Versions: 1 2 3 4 5 6 7 8 9 10 11 12

000
FTUS43 KMPX 071700
TAFRWF
TAF
KRWF 071732Z 0718/0818 26011KT P6SM SCT040 BKN200
      TEMPO 0720/0724 3SM -TSRA OVC025CB
     FM080000 29009KT P6SM BKN040
     FM080400 29007KT P6SM SCT250
     FM081500 31012KT P6SM SKC=

USA.gov is the U.S. government's official web portal to all federal, state and local government web resources and services.